sensor_id;sensor_type;location;lat;lon;timestamp;P1;durP1;ratioP1;P2;durP2;ratioP2
14768;SDS011;7476;49.404;11.152;2022-07-17T00:00:48;5.80;;;4.53;;
14768;SDS011;7476;49.404;11.152;2022-07-17T00:03:16;5.20;;;4.57;;
14768;SDS011;7476;49.404;11.152;2022-07-17T00:05:43;5.50;;;4.93;;
14768;SDS011;7476;49.404;11.152;2022-07-17T00:08:11;5.57;;;5.07;;
14768;SDS011;7476;49.404;11.152;2022-07-17T00:10:39;6.37;;;5.00;;
14768;SDS011;7476;49.404;11.152;2022-07-17T00:13:07;5.67;;;5.03;;
14768;SDS011;7476;49.404;11.152;2022-07-17T00:15:34;5.70;;;4.93;;
14768;SDS011;7476;49.404;11.152;2022-07-17T00:18:01;5.73;;;4.93;;
14768;SDS011;7476;49.404;11.152;2022-07-17T00:20:28;5.13;;;4.70;;
14768;SDS011;7476;49.404;11.152;2022-07-17T00:22:55;6.20;;;5.10;;
14768;SDS011;7476;49.404;11.152;2022-07-17T00:25:24;5.70;;;4.70;;
14768;SDS011;7476;49.404;11.152;2022-07-17T00:27:51;5.47;;;4.97;;
14768;SDS011;7476;49.404;11.152;2022-07-17T00:30:17;5.90;;;5.10;;
14768;SDS011;7476;49.404;11.152;2022-07-17T00:32:45;6.83;;;5.17;;
14768;SDS011;7476;49.404;11.152;2022-07-17T00:35:11;5.60;;;4.80;;
14768;SDS011;7476;49.404;11.152;2022-07-17T00:37:38;5.70;;;5.13;;
14768;SDS011;7476;49.404;11.152;2022-07-17T00:40:06;5.67;;;5.10;;
14768;SDS011;7476;49.404;11.152;2022-07-17T00:42:37;5.50;;;5.00;;
14768;SDS011;7476;49.404;11.152;2022-07-17T00:45:05;7.50;;;5.63;;
14768;SDS011;7476;49.404;11.152;2022-07-17T00:47:32;5.87;;;5.10;;
14768;SDS011;7476;49.404;11.152;2022-07-17T00:49:59;5.93;;;5.33;;
14768;SDS011;7476;49.404;11.152;2022-07-17T00:52:25;6.20;;;4.87;;
14768;SDS011;7476;49.404;11.152;2022-07-17T00:54:52;5.90;;;4.90;;
14768;SDS011;7476;49.404;11.152;2022-07-17T00:57:22;6.53;;;4.60;;
14768;SDS011;7476;49.404;11.152;2022-07-17T00:59:52;6.37;;;5.40;;
14768;SDS011;7476;49.404;11.152;2022-07-17T01:02:19;5.90;;;4.87;;
14768;SDS011;7476;49.404;11.152;2022-07-17T01:04:45;5.87;;;5.27;;
14768;SDS011;7476;49.404;11.152;2022-07-17T01:07:12;5.50;;;5.00;;
14768;SDS011;7476;49.404;11.152;2022-07-17T01:09:38;7.03;;;4.90;;
14768;SDS011;7476;49.404;11.152;2022-07-17T01:12:05;5.30;;;4.80;;
14768;SDS011;7476;49.404;11.152;2022-07-17T01:14:34;5.07;;;4.57;;
14768;SDS011;7476;49.404;11.152;2022-07-17T01:17:02;5.73;;;4.63;;
14768;SDS011;7476;49.404;11.152;2022-07-17T01:19:29;6.67;;;4.90;;
14768;SDS011;7476;49.404;11.152;2022-07-17T01:21:57;5.53;;;4.93;;
14768;SDS011;7476;49.404;11.152;2022-07-17T01:24:23;5.53;;;5.03;;
14768;SDS011;7476;49.404;11.152;2022-07-17T01:26:50;5.90;;;4.77;;
14768;SDS011;7476;49.404;11.152;2022-07-17T01:29:16;5.53;;;4.60;;
14768;SDS011;7476;49.404;11.152;2022-07-17T01:31:43;4.60;;;4.20;;
14768;SDS011;7476;49.404;11.152;2022-07-17T01:34:11;5.43;;;4.93;;
14768;SDS011;7476;49.404;11.152;2022-07-17T01:36:38;5.00;;;4.50;;
14768;SDS011;7476;49.404;11.152;2022-07-17T01:39:07;5.23;;;4.70;;
14768;SDS011;7476;49.404;11.152;2022-07-17T01:41:34;5.80;;;5.20;;
14768;SDS011;7476;49.404;11.152;2022-07-17T01:44:00;5.87;;;4.90;;
14768;SDS011;7476;49.404;11.152;2022-07-17T01:46:28;6.13;;;4.30;;
14768;SDS011;7476;49.404;11.152;2022-07-17T01:48:55;6.07;;;4.63;;
14768;SDS011;7476;49.404;11.152;2022-07-17T01:51:21;4.93;;;4.53;;
14768;SDS011;7476;49.404;11.152;2022-07-17T01:53:48;7.07;;;4.93;;
14768;SDS011;7476;49.404;11.152;2022-07-17T01:56:16;5.37;;;4.87;;
14768;SDS011;7476;49.404;11.152;2022-07-17T01:58:42;5.80;;;4.67;;
14768;SDS011;7476;49.404;11.152;2022-07-17T02:01:09;4.87;;;4.47;;
14768;SDS011;7476;49.404;11.152;2022-07-17T02:03:36;5.00;;;4.50;;
14768;SDS011;7476;49.404;11.152;2022-07-17T02:06:03;5.53;;;4.80;;
14768;SDS011;7476;49.404;11.152;2022-07-17T02:08:29;4.77;;;4.37;;
14768;SDS011;7476;49.404;11.152;2022-07-17T02:10:56;5.30;;;4.80;;
14768;SDS011;7476;49.404;11.152;2022-07-17T02:13:24;5.70;;;4.90;;
14768;SDS011;7476;49.404;11.152;2022-07-17T02:15:50;5.70;;;4.73;;
14768;SDS011;7476;49.404;11.152;2022-07-17T02:18:17;5.70;;;4.67;;
14768;SDS011;7476;49.404;11.152;2022-07-17T02:20:44;5.40;;;4.90;;
14768;SDS011;7476;49.404;11.152;2022-07-17T02:23:14;5.53;;;4.93;;
14768;SDS011;7476;49.404;11.152;2022-07-17T02:25:41;6.90;;;5.10;;
14768;SDS011;7476;49.404;11.152;2022-07-17T02:28:08;6.97;;;5.00;;
14768;SDS011;7476;49.404;11.152;2022-07-17T02:30:36;5.33;;;4.80;;
14768;SDS011;7476;49.404;11.152;2022-07-17T02:33:02;5.33;;;4.83;;
14768;SDS011;7476;49.404;11.152;2022-07-17T02:35:29;5.80;;;5.30;;
14768;SDS011;7476;49.404;11.152;2022-07-17T02:37:56;5.53;;;4.70;;
14768;SDS011;7476;49.404;11.152;2022-07-17T02:40:22;5.43;;;4.93;;
14768;SDS011;7476;49.404;11.152;2022-07-17T02:42:49;5.30;;;4.80;;
14768;SDS011;7476;49.404;11.152;2022-07-17T02:45:15;5.27;;;4.77;;
14768;SDS011;7476;49.404;11.152;2022-07-17T02:47:48;5.57;;;5.03;;
14768;SDS011;7476;49.404;11.152;2022-07-17T02:50:14;6.93;;;4.90;;
14768;SDS011;7476;49.404;11.152;2022-07-17T02:52:41;5.27;;;4.70;;
14768;SDS011;7476;49.404;11.152;2022-07-17T02:55:09;5.47;;;4.67;;
14768;SDS011;7476;49.404;11.152;2022-07-17T02:57:36;5.87;;;4.97;;
14768;SDS011;7476;49.404;11.152;2022-07-17T03:00:04;6.93;;;5.33;;
14768;SDS011;7476;49.404;11.152;2022-07-17T03:02:33;5.40;;;4.90;;
14768;SDS011;7476;49.404;11.152;2022-07-17T03:05:01;5.37;;;4.83;;
14768;SDS011;7476;49.404;11.152;2022-07-17T03:07:27;5.50;;;4.97;;
14768;SDS011;7476;49.404;11.152;2022-07-17T03:09:54;5.83;;;5.17;;
14768;SDS011;7476;49.404;11.152;2022-07-17T03:12:21;5.17;;;4.67;;
14768;SDS011;7476;49.404;11.152;2022-07-17T03:14:47;5.50;;;5.00;;
14768;SDS011;7476;49.404;11.152;2022-07-17T03:17:14;5.27;;;4.77;;
14768;SDS011;7476;49.404;11.152;2022-07-17T03:19:40;4.97;;;4.47;;
14768;SDS011;7476;49.404;11.152;2022-07-17T03:22:08;5.57;;;5.00;;
14768;SDS011;7476;49.404;11.152;2022-07-17T03:24:35;4.90;;;4.47;;
14768;SDS011;7476;49.404;11.152;2022-07-17T03:27:02;5.37;;;4.83;;
14768;SDS011;7476;49.404;11.152;2022-07-17T03:29:29;4.93;;;4.53;;
14768;SDS011;7476;49.404;11.152;2022-07-17T03:31:55;5.23;;;4.73;;
14768;SDS011;7476;49.404;11.152;2022-07-17T03:34:22;4.90;;;4.47;;
14768;SDS011;7476;49.404;11.152;2022-07-17T03:36:49;5.90;;;5.30;;
14768;SDS011;7476;49.404;11.152;2022-07-17T03:39:17;6.93;;;4.90;;
14768;SDS011;7476;49.404;11.152;2022-07-17T03:41:43;5.20;;;4.70;;
14768;SDS011;7476;49.404;11.152;2022-07-17T03:44:10;5.53;;;4.53;;
14768;SDS011;7476;49.404;11.152;2022-07-17T03:46:37;5.13;;;4.60;;
14768;SDS011;7476;49.404;11.152;2022-07-17T03:49:03;5.40;;;4.90;;
14768;SDS011;7476;49.404;11.152;2022-07-17T03:51:30;9.07;;;5.07;;
14768;SDS011;7476;49.404;11.152;2022-07-17T03:53:57;5.80;;;4.87;;
14768;SDS011;7476;49.404;11.152;2022-07-17T03:56:25;5.40;;;4.90;;
14768;SDS011;7476;49.404;11.152;2022-07-17T03:58:51;5.93;;;5.00;;
14768;SDS011;7476;49.404;11.152;2022-07-17T04:01:18;5.77;;;5.13;;
14768;SDS011;7476;49.404;11.152;2022-07-17T04:03:44;5.40;;;4.90;;
14768;SDS011;7476;49.404;11.152;2022-07-17T04:06:11;5.40;;;4.90;;
14768;SDS011;7476;49.404;11.152;2022-07-17T04:08:38;5.30;;;4.80;;
14768;SDS011;7476;49.404;11.152;2022-07-17T04:11:04;6.37;;;5.47;;
14768;SDS011;7476;49.404;11.152;2022-07-17T04:13:32;6.93;;;5.20;;
14768;SDS011;7476;49.404;11.152;2022-07-17T04:15:59;5.43;;;4.93;;
14768;SDS011;7476;49.404;11.152;2022-07-17T04:18:26;6.17;;;5.20;;
14768;SDS011;7476;49.404;11.152;2022-07-17T04:20:55;5.93;;;5.23;;
14768;SDS011;7476;49.404;11.152;2022-07-17T04:23:23;6.00;;;5.13;;
14768;SDS011;7476;49.404;11.152;2022-07-17T04:25:49;5.43;;;4.83;;
14768;SDS011;7476;49.404;11.152;2022-07-17T04:28:16;5.20;;;4.70;;
14768;SDS011;7476;49.404;11.152;2022-07-17T04:30:44;8.60;;;4.87;;
14768;SDS011;7476;49.404;11.152;2022-07-17T04:33:11;5.67;;;4.37;;
14768;SDS011;7476;49.404;11.152;2022-07-17T04:35:38;5.03;;;3.73;;
14768;SDS011;7476;49.404;11.152;2022-07-17T04:38:06;3.53;;;3.23;;
14768;SDS011;7476;49.404;11.152;2022-07-17T04:40:34;3.53;;;3.23;;
14768;SDS011;7476;49.404;11.152;2022-07-17T04:43:01;5.30;;;2.70;;
14768;SDS011;7476;49.404;11.152;2022-07-17T04:45:29;3.53;;;3.10;;
14768;SDS011;7476;49.404;11.152;2022-07-17T04:47:57;3.03;;;2.83;;
14768;SDS011;7476;49.404;11.152;2022-07-17T04:50:24;4.57;;;2.80;;
14768;SDS011;7476;49.404;11.152;2022-07-17T04:52:51;3.00;;;2.70;;
14768;SDS011;7476;49.404;11.152;2022-07-17T04:55:18;3.23;;;2.93;;
14768;SDS011;7476;49.404;11.152;2022-07-17T04:57:44;3.33;;;2.80;;
14768;SDS011;7476;49.404;11.152;2022-07-17T05:00:11;3.57;;;3.27;;
14768;SDS011;7476;49.404;11.152;2022-07-17T05:02:40;3.60;;;2.90;;
14768;SDS011;7476;49.404;11.152;2022-07-17T05:05:08;4.20;;;2.73;;
14768;SDS011;7476;49.404;11.152;2022-07-17T05:07:35;3.33;;;2.97;;
14768;SDS011;7476;49.404;11.152;2022-07-17T05:10:01;3.23;;;2.93;;
14768;SDS011;7476;49.404;11.152;2022-07-17T05:12:29;3.50;;;3.20;;
14768;SDS011;7476;49.404;11.152;2022-07-17T05:14:56;3.70;;;3.40;;
14768;SDS011;7476;49.404;11.152;2022-07-17T05:17:23;4.57;;;3.03;;
14768;SDS011;7476;49.404;11.152;2022-07-17T05:19:50;2.80;;;2.60;;
14768;SDS011;7476;49.404;11.152;2022-07-17T05:22:18;2.90;;;2.70;;
14768;SDS011;7476;49.404;11.152;2022-07-17T05:24:44;3.97;;;2.67;;
14768;SDS011;7476;49.404;11.152;2022-07-17T05:27:11;3.77;;;2.80;;
14768;SDS011;7476;49.404;11.152;2022-07-17T05:29:38;4.90;;;2.70;;
14768;SDS011;7476;49.404;11.152;2022-07-17T05:32:04;2.83;;;2.43;;
14768;SDS011;7476;49.404;11.152;2022-07-17T05:34:31;3.63;;;2.50;;
14768;SDS011;7476;49.404;11.152;2022-07-17T05:36:58;3.57;;;2.90;;
14768;SDS011;7476;49.404;11.152;2022-07-17T05:39:26;4.20;;;2.50;;
14768;SDS011;7476;49.404;11.152;2022-07-17T05:41:52;3.30;;;2.60;;
14768;SDS011;7476;49.404;11.152;2022-07-17T05:44:19;2.90;;;2.60;;
14768;SDS011;7476;49.404;11.152;2022-07-17T05:46:45;2.63;;;2.30;;
14768;SDS011;7476;49.404;11.152;2022-07-17T05:49:12;2.83;;;2.30;;
14768;SDS011;7476;49.404;11.152;2022-07-17T05:51:39;3.83;;;2.87;;
14768;SDS011;7476;49.404;11.152;2022-07-17T05:54:05;2.83;;;2.50;;
14768;SDS011;7476;49.404;11.152;2022-07-17T05:56:33;3.40;;;2.50;;
14768;SDS011;7476;49.404;11.152;2022-07-17T05:59:00;3.47;;;2.47;;
14768;SDS011;7476;49.404;11.152;2022-07-17T06:01:26;2.87;;;2.10;;
14768;SDS011;7476;49.404;11.152;2022-07-17T06:03:53;2.47;;;1.90;;
14768;SDS011;7476;49.404;11.152;2022-07-17T06:06:20;2.87;;;1.90;;
14768;SDS011;7476;49.404;11.152;2022-07-17T06:08:47;4.70;;;2.23;;
14768;SDS011;7476;49.404;11.152;2022-07-17T06:11:13;2.33;;;1.93;;
14768;SDS011;7476;49.404;11.152;2022-07-17T06:13:41;3.53;;;2.03;;
14768;SDS011;7476;49.404;11.152;2022-07-17T06:16:08;2.43;;;1.77;;
14768;SDS011;7476;49.404;11.152;2022-07-17T06:18:35;3.87;;;1.90;;
14768;SDS011;7476;49.404;11.152;2022-07-17T06:21:01;2.67;;;1.60;;
14768;SDS011;7476;49.404;11.152;2022-07-17T06:23:28;3.67;;;1.90;;
14768;SDS011;7476;49.404;11.152;2022-07-17T06:25:55;2.33;;;1.80;;
14768;SDS011;7476;49.404;11.152;2022-07-17T06:28:22;3.03;;;1.80;;
14768;SDS011;7476;49.404;11.152;2022-07-17T06:30:50;2.07;;;1.60;;
14768;SDS011;7476;49.404;11.152;2022-07-17T06:33:16;2.80;;;1.57;;
14768;SDS011;7476;49.404;11.152;2022-07-17T06:35:43;2.60;;;1.93;;
14768;SDS011;7476;49.404;11.152;2022-07-17T06:38:10;2.27;;;1.60;;
14768;SDS011;7476;49.404;11.152;2022-07-17T06:40:36;3.10;;;1.70;;
14768;SDS011;7476;49.404;11.152;2022-07-17T06:43:04;3.15;;;1.60;;
14768;SDS011;7476;49.404;11.152;2022-07-17T06:45:31;3.08;;;1.70;;
14768;SDS011;7476;49.404;11.152;2022-07-17T06:47:59;3.10;;;1.60;;
14768;SDS011;7476;49.404;11.152;2022-07-17T06:50:26;3.17;;;1.77;;
14768;SDS011;7476;49.404;11.152;2022-07-17T06:52:53;3.43;;;1.67;;
14768;SDS011;7476;49.404;11.152;2022-07-17T06:55:20;4.97;;;1.80;;
14768;SDS011;7476;49.404;11.152;2022-07-17T06:57:46;2.78;;;1.60;;
14768;SDS011;7476;49.404;11.152;2022-07-17T07:00:13;3.87;;;1.63;;
14768;SDS011;7476;49.404;11.152;2022-07-17T07:02:42;2.70;;;1.87;;
14768;SDS011;7476;49.404;11.152;2022-07-17T07:05:10;4.13;;;1.87;;
14768;SDS011;7476;49.404;11.152;2022-07-17T07:07:37;2.93;;;1.70;;
14768;SDS011;7476;49.404;11.152;2022-07-17T07:10:04;2.70;;;1.60;;
14768;SDS011;7476;49.404;11.152;2022-07-17T07:12:31;3.47;;;1.80;;
14768;SDS011;7476;49.404;11.152;2022-07-17T07:14:58;2.63;;;1.60;;
14768;SDS011;7476;49.404;11.152;2022-07-17T07:17:25;2.60;;;1.70;;
14768;SDS011;7476;49.404;11.152;2022-07-17T07:19:51;3.57;;;1.63;;
14768;SDS011;7476;49.404;11.152;2022-07-17T07:22:19;2.80;;;1.77;;
14768;SDS011;7476;49.404;11.152;2022-07-17T07:24:46;2.45;;;1.60;;
14768;SDS011;7476;49.404;11.152;2022-07-17T07:27:13;3.33;;;1.90;;
14768;SDS011;7476;49.404;11.152;2022-07-17T07:29:39;2.00;;;1.70;;
14768;SDS011;7476;49.404;11.152;2022-07-17T07:32:06;3.10;;;1.60;;
14768;SDS011;7476;49.404;11.152;2022-07-17T07:34:33;4.07;;;1.63;;
14768;SDS011;7476;49.404;11.152;2022-07-17T07:36:59;2.78;;;1.70;;
14768;SDS011;7476;49.404;11.152;2022-07-17T07:39:27;5.63;;;1.77;;
14768;SDS011;7476;49.404;11.152;2022-07-17T07:41:54;2.03;;;1.50;;
14768;SDS011;7476;49.404;11.152;2022-07-17T07:44:20;1.88;;;1.42;;
14768;SDS011;7476;49.404;11.152;2022-07-17T07:46:47;2.33;;;1.60;;
14768;SDS011;7476;49.404;11.152;2022-07-17T07:49:14;3.97;;;1.90;;
14768;SDS011;7476;49.404;11.152;2022-07-17T07:51:42;3.50;;;1.85;;
14768;SDS011;7476;49.404;11.152;2022-07-17T07:54:09;3.45;;;1.80;;
14768;SDS011;7476;49.404;11.152;2022-07-17T07:56:36;2.40;;;1.50;;
14768;SDS011;7476;49.404;11.152;2022-07-17T07:59:03;3.58;;;1.70;;
14768;SDS011;7476;49.404;11.152;2022-07-17T08:01:30;2.03;;;1.60;;
14768;SDS011;7476;49.404;11.152;2022-07-17T08:03:57;2.85;;;1.50;;
14768;SDS011;7476;49.404;11.152;2022-07-17T08:06:23;3.08;;;1.58;;
14768;SDS011;7476;49.404;11.152;2022-07-17T08:08:50;3.38;;;1.73;;
14768;SDS011;7476;49.404;11.152;2022-07-17T08:11:17;3.55;;;1.50;;
14768;SDS011;7476;49.404;11.152;2022-07-17T08:13:45;2.95;;;1.42;;
14768;SDS011;7476;49.404;11.152;2022-07-17T08:16:11;3.17;;;1.38;;
14768;SDS011;7476;49.404;11.152;2022-07-17T08:18:38;2.67;;;1.65;;
14768;SDS011;7476;49.404;11.152;2022-07-17T08:21:05;2.20;;;1.58;;
14768;SDS011;7476;49.404;11.152;2022-07-17T08:23:31;2.03;;;1.50;;
14768;SDS011;7476;49.404;11.152;2022-07-17T08:25:58;3.30;;;1.77;;
14768;SDS011;7476;49.404;11.152;2022-07-17T08:28:25;1.30;;;1.20;;
14768;SDS011;7476;49.404;11.152;2022-07-17T08:30:53;3.20;;;1.40;;
14768;SDS011;7476;49.404;11.152;2022-07-17T08:33:19;2.63;;;1.60;;
14768;SDS011;7476;49.404;11.152;2022-07-17T08:35:46;2.92;;;1.65;;
14768;SDS011;7476;49.404;11.152;2022-07-17T08:38:13;4.65;;;1.80;;
14768;SDS011;7476;49.404;11.152;2022-07-17T08:40:39;3.75;;;1.67;;
14768;SDS011;7476;49.404;11.152;2022-07-17T08:43:08;2.47;;;1.60;;
14768;SDS011;7476;49.404;11.152;2022-07-17T08:45:35;3.17;;;1.48;;
14768;SDS011;7476;49.404;11.152;2022-07-17T08:48:06;3.17;;;1.60;;
14768;SDS011;7476;49.404;11.152;2022-07-17T08:50:37;2.83;;;1.48;;
14768;SDS011;7476;49.404;11.152;2022-07-17T08:53:04;2.90;;;1.40;;
14768;SDS011;7476;49.404;11.152;2022-07-17T08:55:31;2.47;;;1.65;;
14768;SDS011;7476;49.404;11.152;2022-07-17T08:57:59;1.80;;;1.52;;
14768;SDS011;7476;49.404;11.152;2022-07-17T09:00:26;3.42;;;1.42;;
14768;SDS011;7476;49.404;11.152;2022-07-17T09:02:54;4.00;;;1.60;;
14768;SDS011;7476;49.404;11.152;2022-07-17T09:05:24;2.03;;;1.43;;
14768;SDS011;7476;49.404;11.152;2022-07-17T09:07:52;3.10;;;1.50;;
14768;SDS011;7476;49.404;11.152;2022-07-17T09:10:29;2.37;;;1.60;;
14768;SDS011;7476;49.404;11.152;2022-07-17T09:12:56;2.17;;;1.50;;
14768;SDS011;7476;49.404;11.152;2022-07-17T09:15:24;1.60;;;1.30;;
14768;SDS011;7476;49.404;11.152;2022-07-17T09:17:51;2.70;;;1.73;;
14768;SDS011;7476;49.404;11.152;2022-07-17T09:20:18;1.87;;;1.50;;
14768;SDS011;7476;49.404;11.152;2022-07-17T09:22:56;3.40;;;1.70;;
14768;SDS011;7476;49.404;11.152;2022-07-17T09:25:37;2.23;;;1.50;;
14768;SDS011;7476;49.404;11.152;2022-07-17T09:28:05;2.85;;;1.73;;
14768;SDS011;7476;49.404;11.152;2022-07-17T09:30:34;2.17;;;1.55;;
14768;SDS011;7476;49.404;11.152;2022-07-17T09:33:04;3.88;;;1.60;;
14768;SDS011;7476;49.404;11.152;2022-07-17T09:35:32;2.00;;;1.48;;
14768;SDS011;7476;49.404;11.152;2022-07-17T09:38:00;3.30;;;1.37;;
14768;SDS011;7476;49.404;11.152;2022-07-17T09:40:27;2.78;;;1.40;;
14768;SDS011;7476;49.404;11.152;2022-07-17T09:43:12;3.20;;;1.55;;
14768;SDS011;7476;49.404;11.152;2022-07-17T09:45:38;3.95;;;1.65;;
14768;SDS011;7476;49.404;11.152;2022-07-17T09:48:06;2.20;;;1.60;;
14768;SDS011;7476;49.404;11.152;2022-07-17T09:50:35;2.15;;;1.40;;
14768;SDS011;7476;49.404;11.152;2022-07-17T09:53:05;3.28;;;1.48;;
14768;SDS011;7476;49.404;11.152;2022-07-17T09:55:34;2.25;;;1.50;;
14768;SDS011;7476;49.404;11.152;2022-07-17T09:58:03;2.05;;;1.50;;
14768;SDS011;7476;49.404;11.152;2022-07-17T10:00:31;2.47;;;1.58;;
14768;SDS011;7476;49.404;11.152;2022-07-17T10:03:01;1.85;;;1.30;;
14768;SDS011;7476;49.404;11.152;2022-07-17T10:05:28;1.98;;;1.38;;
14768;SDS011;7476;49.404;11.152;2022-07-17T10:07:54;3.92;;;1.80;;
14768;SDS011;7476;49.404;11.152;2022-07-17T10:10:23;3.28;;;1.50;;
14768;SDS011;7476;49.404;11.152;2022-07-17T10:12:50;2.53;;;1.30;;
14768;SDS011;7476;49.404;11.152;2022-07-17T10:15:18;2.70;;;1.50;;
14768;SDS011;7476;49.404;11.152;2022-07-17T10:17:50;2.63;;;1.33;;
14768;SDS011;7476;49.404;11.152;2022-07-17T10:20:23;3.10;;;1.50;;
14768;SDS011;7476;49.404;11.152;2022-07-17T10:22:51;4.63;;;1.80;;
14768;SDS011;7476;49.404;11.152;2022-07-17T10:25:18;2.67;;;1.50;;
14768;SDS011;7476;49.404;11.152;2022-07-17T10:27:48;3.38;;;1.40;;
14768;SDS011;7476;49.404;11.152;2022-07-17T10:30:19;2.90;;;1.58;;
14768;SDS011;7476;49.404;11.152;2022-07-17T10:32:51;2.17;;;1.40;;
14768;SDS011;7476;49.404;11.152;2022-07-17T10:35:20;3.78;;;1.40;;
14768;SDS011;7476;49.404;11.152;2022-07-17T10:37:46;3.20;;;1.60;;
14768;SDS011;7476;49.404;11.152;2022-07-17T10:40:16;3.17;;;1.60;;
14768;SDS011;7476;49.404;11.152;2022-07-17T10:42:46;3.30;;;1.53;;
14768;SDS011;7476;49.404;11.152;2022-07-17T10:45:17;2.17;;;1.42;;
14768;SDS011;7476;49.404;11.152;2022-07-17T10:47:46;2.40;;;1.70;;
14768;SDS011;7476;49.404;11.152;2022-07-17T10:50:15;2.43;;;1.30;;
14768;SDS011;7476;49.404;11.152;2022-07-17T10:52:42;2.90;;;1.60;;
14768;SDS011;7476;49.404;11.152;2022-07-17T10:55:19;1.40;;;1.27;;
14768;SDS011;7476;49.404;11.152;2022-07-17T10:57:47;4.63;;;1.50;;
14768;SDS011;7476;49.404;11.152;2022-07-17T11:00:15;2.57;;;1.50;;
14768;SDS011;7476;49.404;11.152;2022-07-17T11:02:42;1.93;;;1.43;;
14768;SDS011;7476;49.404;11.152;2022-07-17T11:05:10;3.20;;;1.43;;
14768;SDS011;7476;49.404;11.152;2022-07-17T11:07:48;3.97;;;1.70;;
14768;SDS011;7476;49.404;11.152;2022-07-17T11:10:16;2.10;;;1.30;;
14768;SDS011;7476;49.404;11.152;2022-07-17T11:12:43;2.73;;;1.40;;
14768;SDS011;7476;49.404;11.152;2022-07-17T11:15:11;1.60;;;1.30;;
14768;SDS011;7476;49.404;11.152;2022-07-17T11:17:38;2.23;;;1.43;;
14768;SDS011;7476;49.404;11.152;2022-07-17T11:20:09;2.83;;;1.53;;
14768;SDS011;7476;49.404;11.152;2022-07-17T11:22:36;2.70;;;1.80;;
14768;SDS011;7476;49.404;11.152;2022-07-17T11:25:04;2.90;;;1.57;;
14768;SDS011;7476;49.404;11.152;2022-07-17T11:27:31;2.03;;;1.40;;
14768;SDS011;7476;49.404;11.152;2022-07-17T11:29:59;2.22;;;1.55;;
14768;SDS011;7476;49.404;11.152;2022-07-17T11:32:32;2.22;;;1.50;;
14768;SDS011;7476;49.404;11.152;2022-07-17T11:34:59;3.42;;;1.40;;
14768;SDS011;7476;49.404;11.152;2022-07-17T11:37:28;3.38;;;1.48;;
14768;SDS011;7476;49.404;11.152;2022-07-17T11:39:56;2.13;;;1.40;;
14768;SDS011;7476;49.404;11.152;2022-07-17T11:42:23;2.00;;;1.50;;
14768;SDS011;7476;49.404;11.152;2022-07-17T11:44:51;8.50;;;1.77;;
14768;SDS011;7476;49.404;11.152;2022-07-17T11:47:19;2.15;;;1.33;;
14768;SDS011;7476;49.404;11.152;2022-07-17T11:49:48;2.70;;;1.48;;
14768;SDS011;7476;49.404;11.152;2022-07-17T11:52:16;2.10;;;1.50;;
14768;SDS011;7476;49.404;11.152;2022-07-17T11:54:45;3.03;;;1.30;;
14768;SDS011;7476;49.404;11.152;2022-07-17T11:57:12;3.17;;;1.50;;
14768;SDS011;7476;49.404;11.152;2022-07-17T11:59:40;2.85;;;1.60;;
14768;SDS011;7476;49.404;11.152;2022-07-17T12:02:06;2.70;;;1.42;;
14768;SDS011;7476;49.404;11.152;2022-07-17T12:04:34;1.85;;;1.50;;
14768;SDS011;7476;49.404;11.152;2022-07-17T12:07:03;1.90;;;1.40;;
14768;SDS011;7476;49.404;11.152;2022-07-17T12:09:31;2.45;;;1.42;;
14768;SDS011;7476;49.404;11.152;2022-07-17T12:11:59;2.33;;;1.40;;
14768;SDS011;7476;49.404;11.152;2022-07-17T12:14:26;2.33;;;1.58;;
14768;SDS011;7476;49.404;11.152;2022-07-17T12:16:55;3.45;;;2.00;;
14768;SDS011;7476;49.404;11.152;2022-07-17T12:19:23;4.47;;;1.52;;
14768;SDS011;7476;49.404;11.152;2022-07-17T12:21:51;2.00;;;1.50;;
14768;SDS011;7476;49.404;11.152;2022-07-17T12:24:23;1.98;;;1.42;;
14768;SDS011;7476;49.404;11.152;2022-07-17T12:26:52;1.83;;;1.20;;
14768;SDS011;7476;49.404;11.152;2022-07-17T12:29:20;4.85;;;1.70;;
14768;SDS011;7476;49.404;11.152;2022-07-17T12:31:46;4.55;;;1.63;;
14768;SDS011;7476;49.404;11.152;2022-07-17T12:34:13;2.45;;;1.40;;
14768;SDS011;7476;49.404;11.152;2022-07-17T12:36:40;2.45;;;1.35;;
14768;SDS011;7476;49.404;11.152;2022-07-17T12:39:06;1.85;;;1.55;;
14768;SDS011;7476;49.404;11.152;2022-07-17T12:41:34;2.25;;;1.30;;
14768;SDS011;7476;49.404;11.152;2022-07-17T12:44:01;4.65;;;1.30;;
14768;SDS011;7476;49.404;11.152;2022-07-17T12:46:28;1.88;;;1.20;;
14768;SDS011;7476;49.404;11.152;2022-07-17T12:48:54;2.58;;;1.50;;
14768;SDS011;7476;49.404;11.152;2022-07-17T12:51:21;2.35;;;1.38;;
14768;SDS011;7476;49.404;11.152;2022-07-17T12:53:48;1.60;;;1.25;;
14768;SDS011;7476;49.404;11.152;2022-07-17T12:56:15;1.60;;;1.30;;
14768;SDS011;7476;49.404;11.152;2022-07-17T12:58:43;2.20;;;1.35;;
14768;SDS011;7476;49.404;11.152;2022-07-17T13:01:10;2.20;;;1.20;;
14768;SDS011;7476;49.404;11.152;2022-07-17T13:03:36;1.63;;;1.10;;
14768;SDS011;7476;49.404;11.152;2022-07-17T13:06:03;2.97;;;1.27;;
14768;SDS011;7476;49.404;11.152;2022-07-17T13:08:31;3.22;;;1.50;;
14768;SDS011;7476;49.404;11.152;2022-07-17T13:10:58;3.50;;;1.25;;
14768;SDS011;7476;49.404;11.152;2022-07-17T13:13:25;1.98;;;1.20;;
14768;SDS011;7476;49.404;11.152;2022-07-17T13:15:53;1.75;;;1.23;;
14768;SDS011;7476;49.404;11.152;2022-07-17T13:18:19;2.92;;;1.40;;
14768;SDS011;7476;49.404;11.152;2022-07-17T13:20:46;4.30;;;1.45;;
14768;SDS011;7476;49.404;11.152;2022-07-17T13:23:13;4.25;;;1.00;;
14768;SDS011;7476;49.404;11.152;2022-07-17T13:25:40;1.77;;;1.20;;
14768;SDS011;7476;49.404;11.152;2022-07-17T13:28:08;5.05;;;1.85;;
14768;SDS011;7476;49.404;11.152;2022-07-17T13:30:35;3.97;;;1.38;;
14768;SDS011;7476;49.404;11.152;2022-07-17T13:33:03;1.88;;;1.17;;
14768;SDS011;7476;49.404;11.152;2022-07-17T13:35:30;3.67;;;1.38;;
14768;SDS011;7476;49.404;11.152;2022-07-17T13:37:56;2.28;;;1.50;;
14768;SDS011;7476;49.404;11.152;2022-07-17T13:40:26;3.28;;;1.17;;
14768;SDS011;7476;49.404;11.152;2022-07-17T13:42:54;1.98;;;1.45;;
14768;SDS011;7476;49.404;11.152;2022-07-17T13:45:20;3.15;;;1.38;;
14768;SDS011;7476;49.404;11.152;2022-07-17T13:47:47;2.45;;;1.38;;
14768;SDS011;7476;49.404;11.152;2022-07-17T13:50:15;2.40;;;1.20;;
14768;SDS011;7476;49.404;11.152;2022-07-17T13:52:42;3.17;;;1.50;;
14768;SDS011;7476;49.404;11.152;2022-07-17T13:55:08;1.63;;;1.30;;
14768;SDS011;7476;49.404;11.152;2022-07-17T13:57:35;1.95;;;1.30;;
14768;SDS011;7476;49.404;11.152;2022-07-17T14:00:02;2.47;;;1.52;;
14768;SDS011;7476;49.404;11.152;2022-07-17T14:02:29;3.63;;;1.42;;
14768;SDS011;7476;49.404;11.152;2022-07-17T14:04:56;2.63;;;1.45;;
14768;SDS011;7476;49.404;11.152;2022-07-17T14:07:24;1.50;;;1.40;;
14768;SDS011;7476;49.404;11.152;2022-07-17T14:09:50;2.17;;;1.30;;
14768;SDS011;7476;49.404;11.152;2022-07-17T14:12:17;3.58;;;1.13;;
14768;SDS011;7476;49.404;11.152;2022-07-17T14:14:44;1.77;;;1.30;;
14768;SDS011;7476;49.404;11.152;2022-07-17T14:17:10;1.83;;;1.20;;
14768;SDS011;7476;49.404;11.152;2022-07-17T14:19:37;2.88;;;1.40;;
14768;SDS011;7476;49.404;11.152;2022-07-17T14:22:04;2.58;;;1.30;;
14768;SDS011;7476;49.404;11.152;2022-07-17T14:24:32;1.83;;;1.33;;
14768;SDS011;7476;49.404;11.152;2022-07-17T14:26:59;1.73;;;1.20;;
14768;SDS011;7476;49.404;11.152;2022-07-17T14:29:25;1.45;;;1.00;;
14768;SDS011;7476;49.404;11.152;2022-07-17T14:31:52;1.58;;;1.30;;
14768;SDS011;7476;49.404;11.152;2022-07-17T14:34:19;2.47;;;1.23;;
14768;SDS011;7476;49.404;11.152;2022-07-17T14:36:49;1.52;;;1.20;;
14768;SDS011;7476;49.404;11.152;2022-07-17T14:39:25;1.33;;;1.10;;
14768;SDS011;7476;49.404;11.152;2022-07-17T14:41:53;1.52;;;1.20;;
14768;SDS011;7476;49.404;11.152;2022-07-17T14:44:19;1.92;;;1.27;;
14768;SDS011;7476;49.404;11.152;2022-07-17T14:46:46;1.77;;;1.20;;
14768;SDS011;7476;49.404;11.152;2022-07-17T14:49:13;1.45;;;1.10;;